sensor_id;sensor_type;location;lat;lon;timestamp;P1;durP1;ratioP1;P2;durP2;ratioP2
14768;SDS011;7476;49.404;11.152;2022-11-20T00:00:51;23.80;;;14.37;;
14768;SDS011;7476;49.404;11.152;2022-11-20T00:03:17;22.43;;;13.97;;
14768;SDS011;7476;49.404;11.152;2022-11-20T00:05:44;26.27;;;16.07;;
14768;SDS011;7476;49.404;11.152;2022-11-20T00:08:11;21.63;;;14.97;;
14768;SDS011;7476;49.404;11.152;2022-11-20T00:10:38;24.13;;;14.33;;
14768;SDS011;7476;49.404;11.152;2022-11-20T00:13:06;23.63;;;14.57;;
14768;SDS011;7476;49.404;11.152;2022-11-20T00:15:35;22.07;;;14.67;;
14768;SDS011;7476;49.404;11.152;2022-11-20T00:18:01;22.87;;;14.30;;
14768;SDS011;7476;49.404;11.152;2022-11-20T00:20:28;23.20;;;14.43;;
14768;SDS011;7476;49.404;11.152;2022-11-20T00:22:55;24.17;;;15.10;;
14768;SDS011;7476;49.404;11.152;2022-11-20T00:25:21;23.33;;;14.47;;
14768;SDS011;7476;49.404;11.152;2022-11-20T00:27:48;22.50;;;14.37;;
14768;SDS011;7476;49.404;11.152;2022-11-20T00:30:15;24.60;;;14.93;;
14768;SDS011;7476;49.404;11.152;2022-11-20T00:32:43;22.80;;;14.60;;
14768;SDS011;7476;49.404;11.152;2022-11-20T00:35:10;23.03;;;14.63;;
14768;SDS011;7476;49.404;11.152;2022-11-20T00:37:37;23.40;;;13.97;;
14768;SDS011;7476;49.404;11.152;2022-11-20T00:40:04;22.10;;;14.13;;
14768;SDS011;7476;49.404;11.152;2022-11-20T00:42:31;23.10;;;14.57;;
14768;SDS011;7476;49.404;11.152;2022-11-20T00:44:58;25.03;;;15.27;;
14768;SDS011;7476;49.404;11.152;2022-11-20T00:47:25;22.27;;;14.83;;
14768;SDS011;7476;49.404;11.152;2022-11-20T00:49:53;22.30;;;13.63;;
14768;SDS011;7476;49.404;11.152;2022-11-20T00:52:20;22.23;;;14.27;;
14768;SDS011;7476;49.404;11.152;2022-11-20T00:54:46;25.70;;;15.20;;
14768;SDS011;7476;49.404;11.152;2022-11-20T00:57:14;24.63;;;15.03;;
14768;SDS011;7476;49.404;11.152;2022-11-20T00:59:41;24.47;;;14.80;;
14768;SDS011;7476;49.404;11.152;2022-11-20T01:02:07;23.63;;;14.57;;
14768;SDS011;7476;49.404;11.152;2022-11-20T01:04:34;23.17;;;15.07;;
14768;SDS011;7476;49.404;11.152;2022-11-20T01:07:02;23.00;;;14.63;;
14768;SDS011;7476;49.404;11.152;2022-11-20T01:09:29;23.53;;;15.07;;
14768;SDS011;7476;49.404;11.152;2022-11-20T01:11:55;23.80;;;14.00;;
14768;SDS011;7476;49.404;11.152;2022-11-20T01:14:22;22.33;;;14.30;;
14768;SDS011;7476;49.404;11.152;2022-11-20T01:16:49;24.03;;;14.50;;
14768;SDS011;7476;49.404;11.152;2022-11-20T01:19:17;26.13;;;14.43;;
14768;SDS011;7476;49.404;11.152;2022-11-20T01:21:46;24.37;;;14.67;;
14768;SDS011;7476;49.404;11.152;2022-11-20T01:24:16;23.20;;;14.50;;
14768;SDS011;7476;49.404;11.152;2022-11-20T01:26:45;23.47;;;14.20;;
14768;SDS011;7476;49.404;11.152;2022-11-20T01:29:15;24.13;;;14.40;;
14768;SDS011;7476;49.404;11.152;2022-11-20T01:31:43;22.60;;;14.47;;
14768;SDS011;7476;49.404;11.152;2022-11-20T01:34:10;24.43;;;15.03;;
14768;SDS011;7476;49.404;11.152;2022-11-20T01:36:39;24.90;;;15.43;;
14768;SDS011;7476;49.404;11.152;2022-11-20T01:39:07;28.90;;;16.23;;
14768;SDS011;7476;49.404;11.152;2022-11-20T01:41:39;23.50;;;15.17;;
14768;SDS011;7476;49.404;11.152;2022-11-20T01:47:13;24.33;;;14.67;;
14768;SDS011;7476;49.404;11.152;2022-11-20T01:49:45;24.17;;;15.40;;
14768;SDS011;7476;49.404;11.152;2022-11-20T01:52:17;27.30;;;16.17;;
14768;SDS011;7476;49.404;11.152;2022-11-20T01:54:48;23.37;;;14.43;;
14768;SDS011;7476;49.404;11.152;2022-11-20T01:57:21;24.47;;;14.97;;
14768;SDS011;7476;49.404;11.152;2022-11-20T01:59:51;25.77;;;15.00;;
14768;SDS011;7476;49.404;11.152;2022-11-20T02:02:21;23.53;;;15.27;;
14768;SDS011;7476;49.404;11.152;2022-11-20T02:04:48;25.70;;;16.10;;
14768;SDS011;7476;49.404;11.152;2022-11-20T02:07:17;22.37;;;14.23;;
14768;SDS011;7476;49.404;11.152;2022-11-20T02:09:45;24.13;;;13.67;;
14768;SDS011;7476;49.404;11.152;2022-11-20T02:12:12;23.23;;;14.83;;
14768;SDS011;7476;49.404;11.152;2022-11-20T02:14:54;25.40;;;14.47;;
14768;SDS011;7476;49.404;11.152;2022-11-20T02:17:22;21.63;;;13.50;;
14768;SDS011;7476;49.404;11.152;2022-11-20T02:19:50;23.93;;;14.70;;
14768;SDS011;7476;49.404;11.152;2022-11-20T02:22:17;25.57;;;15.30;;
14768;SDS011;7476;49.404;11.152;2022-11-20T02:24:48;27.07;;;15.07;;
14768;SDS011;7476;49.404;11.152;2022-11-20T02:27:17;22.43;;;14.20;;
14768;SDS011;7476;49.404;11.152;2022-11-20T02:29:46;26.03;;;16.10;;
14768;SDS011;7476;49.404;11.152;2022-11-20T02:32:20;23.27;;;14.43;;
14768;SDS011;7476;49.404;11.152;2022-11-20T02:34:47;22.23;;;14.20;;
14768;SDS011;7476;49.404;11.152;2022-11-20T02:37:14;23.93;;;13.77;;
14768;SDS011;7476;49.404;11.152;2022-11-20T02:39:41;25.03;;;14.80;;
14768;SDS011;7476;49.404;11.152;2022-11-20T02:42:11;22.83;;;14.17;;
14768;SDS011;7476;49.404;11.152;2022-11-20T02:44:38;25.53;;;14.93;;
14768;SDS011;7476;49.404;11.152;2022-11-20T02:47:05;22.50;;;14.90;;
14768;SDS011;7476;49.404;11.152;2022-11-20T02:49:32;24.60;;;17.03;;
14768;SDS011;7476;49.404;11.152;2022-11-20T02:51:59;24.53;;;14.43;;
14768;SDS011;7476;49.404;11.152;2022-11-20T02:54:26;23.10;;;14.17;;
14768;SDS011;7476;49.404;11.152;2022-11-20T02:56:52;24.87;;;14.57;;
14768;SDS011;7476;49.404;11.152;2022-11-20T02:59:20;23.17;;;14.50;;
14768;SDS011;7476;49.404;11.152;2022-11-20T03:01:47;24.60;;;15.27;;
14768;SDS011;7476;49.404;11.152;2022-11-20T03:04:14;23.93;;;14.83;;
14768;SDS011;7476;49.404;11.152;2022-11-20T03:06:40;22.00;;;13.93;;
14768;SDS011;7476;49.404;11.152;2022-11-20T03:09:07;25.80;;;14.97;;
14768;SDS011;7476;49.404;11.152;2022-11-20T03:11:34;24.70;;;14.87;;
14768;SDS011;7476;49.404;11.152;2022-11-20T03:14:01;21.63;;;14.23;;
14768;SDS011;7476;49.404;11.152;2022-11-20T03:16:30;23.57;;;14.60;;
14768;SDS011;7476;49.404;11.152;2022-11-20T03:18:57;22.53;;;14.37;;
14768;SDS011;7476;49.404;11.152;2022-11-20T03:21:24;22.53;;;13.17;;
14768;SDS011;7476;49.404;11.152;2022-11-20T03:23:52;24.03;;;15.00;;
14768;SDS011;7476;49.404;11.152;2022-11-20T03:26:19;24.33;;;15.03;;
14768;SDS011;7476;49.404;11.152;2022-11-20T03:28:48;25.47;;;14.83;;
14768;SDS011;7476;49.404;11.152;2022-11-20T03:31:16;20.63;;;13.47;;
14768;SDS011;7476;49.404;11.152;2022-11-20T03:33:46;23.73;;;14.37;;
14768;SDS011;7476;49.404;11.152;2022-11-20T03:36:13;24.50;;;14.20;;
14768;SDS011;7476;49.404;11.152;2022-11-20T03:38:41;21.90;;;14.10;;
14768;SDS011;7476;49.404;11.152;2022-11-20T03:41:09;27.03;;;14.17;;
14768;SDS011;7476;49.404;11.152;2022-11-20T03:43:37;23.20;;;13.87;;
14768;SDS011;7476;49.404;11.152;2022-11-20T03:46:04;22.60;;;13.07;;
14768;SDS011;7476;49.404;11.152;2022-11-20T03:48:31;24.20;;;13.13;;
14768;SDS011;7476;49.404;11.152;2022-11-20T03:51:09;22.67;;;12.73;;
14768;SDS011;7476;49.404;11.152;2022-11-20T03:53:37;24.80;;;14.10;;
14768;SDS011;7476;49.404;11.152;2022-11-20T03:56:04;22.47;;;13.80;;
14768;SDS011;7476;49.404;11.152;2022-11-20T03:58:32;20.07;;;12.37;;
14768;SDS011;7476;49.404;11.152;2022-11-20T04:01:03;26.47;;;14.23;;
14768;SDS011;7476;49.404;11.152;2022-11-20T04:03:30;23.00;;;13.33;;
14768;SDS011;7476;49.404;11.152;2022-11-20T04:06:00;22.33;;;14.17;;
14768;SDS011;7476;49.404;11.152;2022-11-20T04:08:29;24.67;;;14.30;;
14768;SDS011;7476;49.404;11.152;2022-11-20T04:10:56;24.47;;;14.47;;
14768;SDS011;7476;49.404;11.152;2022-11-20T04:13:22;24.70;;;14.30;;
14768;SDS011;7476;49.404;11.152;2022-11-20T04:15:49;23.30;;;13.97;;
14768;SDS011;7476;49.404;11.152;2022-11-20T04:18:16;22.63;;;13.80;;
14768;SDS011;7476;49.404;11.152;2022-11-20T04:20:42;25.20;;;14.37;;
14768;SDS011;7476;49.404;11.152;2022-11-20T04:23:09;24.37;;;13.93;;
14768;SDS011;7476;49.404;11.152;2022-11-20T04:25:37;25.63;;;14.20;;
14768;SDS011;7476;49.404;11.152;2022-11-20T04:28:04;22.37;;;12.77;;
14768;SDS011;7476;49.404;11.152;2022-11-20T04:30:30;24.50;;;14.27;;
14768;SDS011;7476;49.404;11.152;2022-11-20T04:32:57;25.10;;;13.77;;
14768;SDS011;7476;49.404;11.152;2022-11-20T04:35:24;23.43;;;14.40;;
14768;SDS011;7476;49.404;11.152;2022-11-20T04:37:50;23.90;;;13.67;;
14768;SDS011;7476;49.404;11.152;2022-11-20T04:40:17;21.33;;;12.77;;
14768;SDS011;7476;49.404;11.152;2022-11-20T04:42:45;21.67;;;13.30;;
14768;SDS011;7476;49.404;11.152;2022-11-20T04:45:12;24.90;;;13.90;;
14768;SDS011;7476;49.404;11.152;2022-11-20T04:47:39;24.77;;;14.63;;
14768;SDS011;7476;49.404;11.152;2022-11-20T04:50:06;23.50;;;13.67;;
14768;SDS011;7476;49.404;11.152;2022-11-20T04:52:33;22.43;;;13.90;;
14768;SDS011;7476;49.404;11.152;2022-11-20T04:54:59;25.77;;;14.43;;
14768;SDS011;7476;49.404;11.152;2022-11-20T04:57:26;21.27;;;12.93;;
14768;SDS011;7476;49.404;11.152;2022-11-20T04:59:54;22.77;;;13.40;;
14768;SDS011;7476;49.404;11.152;2022-11-20T05:02:21;23.23;;;13.70;;
14768;SDS011;7476;49.404;11.152;2022-11-20T05:04:48;26.77;;;14.10;;
14768;SDS011;7476;49.404;11.152;2022-11-20T05:07:15;26.83;;;13.47;;
14768;SDS011;7476;49.404;11.152;2022-11-20T05:09:42;20.97;;;13.07;;
14768;SDS011;7476;49.404;11.152;2022-11-20T05:12:09;21.23;;;12.47;;
14768;SDS011;7476;49.404;11.152;2022-11-20T05:14:36;20.73;;;12.70;;
14768;SDS011;7476;49.404;11.152;2022-11-20T05:17:04;21.50;;;12.80;;
14768;SDS011;7476;49.404;11.152;2022-11-20T05:19:31;21.17;;;12.30;;
14768;SDS011;7476;49.404;11.152;2022-11-20T05:21:57;18.27;;;11.50;;
14768;SDS011;7476;49.404;11.152;2022-11-20T05:24:24;19.97;;;12.57;;
14768;SDS011;7476;49.404;11.152;2022-11-20T05:26:51;21.97;;;11.93;;
14768;SDS011;7476;49.404;11.152;2022-11-20T05:29:17;21.83;;;12.73;;
14768;SDS011;7476;49.404;11.152;2022-11-20T05:31:44;19.40;;;11.93;;
14768;SDS011;7476;49.404;11.152;2022-11-20T05:34:12;19.43;;;12.33;;
14768;SDS011;7476;49.404;11.152;2022-11-20T05:36:39;19.63;;;12.10;;
14768;SDS011;7476;49.404;11.152;2022-11-20T05:39:05;22.07;;;12.83;;
14768;SDS011;7476;49.404;11.152;2022-11-20T05:41:32;22.43;;;12.70;;
14768;SDS011;7476;49.404;11.152;2022-11-20T05:43:59;23.03;;;13.13;;
14768;SDS011;7476;49.404;11.152;2022-11-20T05:46:26;19.93;;;12.57;;
14768;SDS011;7476;49.404;11.152;2022-11-20T05:48:53;17.77;;;11.53;;
14768;SDS011;7476;49.404;11.152;2022-11-20T05:51:21;18.80;;;11.53;;
14768;SDS011;7476;49.404;11.152;2022-11-20T05:53:48;15.83;;;10.30;;
14768;SDS011;7476;49.404;11.152;2022-11-20T05:56:15;18.33;;;11.00;;
14768;SDS011;7476;49.404;11.152;2022-11-20T05:58:43;20.17;;;12.27;;
14768;SDS011;7476;49.404;11.152;2022-11-20T06:01:11;17.77;;;11.60;;
14768;SDS011;7476;49.404;11.152;2022-11-20T06:03:40;17.90;;;11.00;;
14768;SDS011;7476;49.404;11.152;2022-11-20T06:06:10;17.73;;;10.67;;
14768;SDS011;7476;49.404;11.152;2022-11-20T06:08:39;17.77;;;11.20;;
14768;SDS011;7476;49.404;11.152;2022-11-20T06:11:07;15.07;;;9.63;;
14768;SDS011;7476;49.404;11.152;2022-11-20T06:13:35;18.23;;;10.93;;
14768;SDS011;7476;49.404;11.152;2022-11-20T06:16:02;18.53;;;11.27;;
14768;SDS011;7476;49.404;11.152;2022-11-20T06:18:30;16.87;;;10.63;;
14768;SDS011;7476;49.404;11.152;2022-11-20T06:21:00;17.37;;;10.33;;
14768;SDS011;7476;49.404;11.152;2022-11-20T06:23:29;17.00;;;9.87;;
14768;SDS011;7476;49.404;11.152;2022-11-20T06:25:58;14.70;;;9.67;;
14768;SDS011;7476;49.404;11.152;2022-11-20T06:28:27;15.13;;;9.77;;
14768;SDS011;7476;49.404;11.152;2022-11-20T06:30:54;17.03;;;10.57;;
14768;SDS011;7476;49.404;11.152;2022-11-20T06:33:20;14.43;;;9.63;;
14768;SDS011;7476;49.404;11.152;2022-11-20T06:35:49;15.17;;;9.77;;
14768;SDS011;7476;49.404;11.152;2022-11-20T06:38:16;15.97;;;10.60;;
14768;SDS011;7476;49.404;11.152;2022-11-20T06:40:43;15.20;;;9.20;;
14768;SDS011;7476;49.404;11.152;2022-11-20T06:43:11;15.47;;;9.40;;
14768;SDS011;7476;49.404;11.152;2022-11-20T06:45:39;16.63;;;10.07;;
14768;SDS011;7476;49.404;11.152;2022-11-20T06:48:05;15.87;;;9.43;;
14768;SDS011;7476;49.404;11.152;2022-11-20T06:50:32;14.70;;;10.00;;
14768;SDS011;7476;49.404;11.152;2022-11-20T06:53:00;13.60;;;8.83;;
14768;SDS011;7476;49.404;11.152;2022-11-20T06:55:28;15.87;;;9.07;;
14768;SDS011;7476;49.404;11.152;2022-11-20T06:57:54;14.60;;;9.00;;
14768;SDS011;7476;49.404;11.152;2022-11-20T07:00:23;14.60;;;9.50;;
14768;SDS011;7476;49.404;11.152;2022-11-20T07:02:50;15.57;;;9.77;;
14768;SDS011;7476;49.404;11.152;2022-11-20T07:05:17;15.63;;;10.03;;
14768;SDS011;7476;49.404;11.152;2022-11-20T07:07:43;14.80;;;9.43;;
14768;SDS011;7476;49.404;11.152;2022-11-20T07:10:10;15.30;;;9.57;;
14768;SDS011;7476;49.404;11.152;2022-11-20T07:12:37;14.10;;;9.03;;
14768;SDS011;7476;49.404;11.152;2022-11-20T07:15:05;13.70;;;9.60;;
14768;SDS011;7476;49.404;11.152;2022-11-20T07:17:33;15.77;;;10.10;;
14768;SDS011;7476;49.404;11.152;2022-11-20T07:20:00;11.50;;;8.00;;
14768;SDS011;7476;49.404;11.152;2022-11-20T07:22:27;14.77;;;9.83;;
14768;SDS011;7476;49.404;11.152;2022-11-20T07:24:54;14.57;;;8.63;;
14768;SDS011;7476;49.404;11.152;2022-11-20T07:27:20;14.00;;;9.13;;
14768;SDS011;7476;49.404;11.152;2022-11-20T07:29:47;13.90;;;9.40;;
14768;SDS011;7476;49.404;11.152;2022-11-20T07:32:14;11.83;;;8.87;;
14768;SDS011;7476;49.404;11.152;2022-11-20T07:34:42;16.00;;;9.47;;
14768;SDS011;7476;49.404;11.152;2022-11-20T07:37:08;13.63;;;8.83;;
14768;SDS011;7476;49.404;11.152;2022-11-20T07:39:35;13.53;;;8.20;;
14768;SDS011;7476;49.404;11.152;2022-11-20T07:42:02;15.67;;;9.90;;
14768;SDS011;7476;49.404;11.152;2022-11-20T07:44:29;13.17;;;9.47;;
14768;SDS011;7476;49.404;11.152;2022-11-20T07:46:55;14.67;;;8.97;;
14768;SDS011;7476;49.404;11.152;2022-11-20T07:49:22;14.37;;;8.90;;
14768;SDS011;7476;49.404;11.152;2022-11-20T07:51:51;45.27;;;9.90;;
14768;SDS011;7476;49.404;11.152;2022-11-20T07:54:18;13.77;;;9.03;;
14768;SDS011;7476;49.404;11.152;2022-11-20T07:56:45;16.20;;;9.67;;
14768;SDS011;7476;49.404;11.152;2022-11-20T07:59:12;13.10;;;8.93;;
14768;SDS011;7476;49.404;11.152;2022-11-20T08:01:39;12.70;;;8.67;;
14768;SDS011;7476;49.404;11.152;2022-11-20T08:04:06;12.70;;;8.97;;
14768;SDS011;7476;49.404;11.152;2022-11-20T08:06:33;13.67;;;9.03;;
14768;SDS011;7476;49.404;11.152;2022-11-20T08:09:01;13.40;;;8.83;;
14768;SDS011;7476;49.404;11.152;2022-11-20T08:11:29;12.67;;;8.93;;
14768;SDS011;7476;49.404;11.152;2022-11-20T08:14:13;11.83;;;8.80;;
14768;SDS011;7476;49.404;11.152;2022-11-20T08:16:40;15.53;;;9.80;;
14768;SDS011;7476;49.404;11.152;2022-11-20T08:19:10;14.73;;;9.93;;
14768;SDS011;7476;49.404;11.152;2022-11-20T08:21:40;13.60;;;9.47;;
14768;SDS011;7476;49.404;11.152;2022-11-20T08:24:08;11.93;;;8.73;;
14768;SDS011;7476;49.404;11.152;2022-11-20T08:26:36;13.57;;;8.93;;
14768;SDS011;7476;49.404;11.152;2022-11-20T08:29:04;12.03;;;8.40;;
14768;SDS011;7476;49.404;11.152;2022-11-20T08:31:31;12.57;;;8.10;;
14768;SDS011;7476;49.404;11.152;2022-11-20T08:33:58;13.00;;;8.30;;
14768;SDS011;7476;49.404;11.152;2022-11-20T08:36:25;12.87;;;8.63;;
14768;SDS011;7476;49.404;11.152;2022-11-20T08:38:52;13.03;;;8.43;;
14768;SDS011;7476;49.404;11.152;2022-11-20T08:41:21;13.73;;;8.40;;
14768;SDS011;7476;49.404;11.152;2022-11-20T08:43:52;12.50;;;8.67;;
14768;SDS011;7476;49.404;11.152;2022-11-20T08:46:21;12.60;;;8.60;;
14768;SDS011;7476;49.404;11.152;2022-11-20T08:48:49;12.20;;;8.00;;
14768;SDS011;7476;49.404;11.152;2022-11-20T08:51:15;13.70;;;8.90;;
14768;SDS011;7476;49.404;11.152;2022-11-20T08:53:42;12.73;;;8.60;;
14768;SDS011;7476;49.404;11.152;2022-11-20T08:56:09;12.33;;;8.23;;
14768;SDS011;7476;49.404;11.152;2022-11-20T08:58:37;13.60;;;8.57;;
14768;SDS011;7476;49.404;11.152;2022-11-20T09:01:05;13.47;;;8.53;;
14768;SDS011;7476;49.404;11.152;2022-11-20T09:03:31;13.77;;;8.57;;
14768;SDS011;7476;49.404;11.152;2022-11-20T09:05:58;11.97;;;8.27;;
14768;SDS011;7476;49.404;11.152;2022-11-20T09:08:27;12.60;;;8.83;;
14768;SDS011;7476;49.404;11.152;2022-11-20T09:10:54;15.50;;;8.70;;
14768;SDS011;7476;49.404;11.152;2022-11-20T09:13:22;11.70;;;7.83;;
14768;SDS011;7476;49.404;11.152;2022-11-20T09:15:56;12.97;;;8.00;;
14768;SDS011;7476;49.404;11.152;2022-11-20T09:18:24;12.17;;;8.17;;
14768;SDS011;7476;49.404;11.152;2022-11-20T09:20:51;11.37;;;8.00;;
14768;SDS011;7476;49.404;11.152;2022-11-20T09:23:21;13.73;;;8.53;;
14768;SDS011;7476;49.404;11.152;2022-11-20T09:25:48;14.13;;;8.60;;
14768;SDS011;7476;49.404;11.152;2022-11-20T09:28:15;15.03;;;9.23;;
14768;SDS011;7476;49.404;11.152;2022-11-20T09:30:43;13.30;;;9.10;;
14768;SDS011;7476;49.404;11.152;2022-11-20T09:33:11;13.50;;;8.83;;
14768;SDS011;7476;49.404;11.152;2022-11-20T09:35:38;12.17;;;8.60;;
14768;SDS011;7476;49.404;11.152;2022-11-20T09:38:05;13.53;;;8.90;;
14768;SDS011;7476;49.404;11.152;2022-11-20T09:40:32;12.07;;;8.63;;
14768;SDS011;7476;49.404;11.152;2022-11-20T09:43:02;13.23;;;8.93;;
14768;SDS011;7476;49.404;11.152;2022-11-20T09:45:37;13.13;;;9.50;;
14768;SDS011;7476;49.404;11.152;2022-11-20T09:48:17;12.13;;;8.67;;
14768;SDS011;7476;49.404;11.152;2022-11-20T09:51:08;12.10;;;8.63;;
14768;SDS011;7476;49.404;11.152;2022-11-20T09:53:46;14.10;;;9.97;;
14768;SDS011;7476;49.404;11.152;2022-11-20T09:56:25;13.07;;;9.10;;
14768;SDS011;7476;49.404;11.152;2022-11-20T09:58:54;14.67;;;9.20;;
14768;SDS011;7476;49.404;11.152;2022-11-20T10:01:26;11.80;;;8.70;;
14768;SDS011;7476;49.404;11.152;2022-11-20T10:03:58;12.10;;;9.10;;
14768;SDS011;7476;49.404;11.152;2022-11-20T10:06:29;11.93;;;8.70;;
14768;SDS011;7476;49.404;11.152;2022-11-20T10:09:01;12.53;;;8.63;;
14768;SDS011;7476;49.404;11.152;2022-11-20T10:11:35;11.97;;;8.43;;
14768;SDS011;7476;49.404;11.152;2022-11-20T10:14:12;11.23;;;7.80;;
14768;SDS011;7476;49.404;11.152;2022-11-20T10:16:52;11.60;;;8.37;;
14768;SDS011;7476;49.404;11.152;2022-11-20T10:19:32;12.10;;;8.37;;
14768;SDS011;7476;49.404;11.152;2022-11-20T10:22:13;11.20;;;8.40;;
14768;SDS011;7476;49.404;11.152;2022-11-20T10:24:55;11.30;;;8.40;;
14768;SDS011;7476;49.404;11.152;2022-11-20T10:27:30;10.13;;;7.87;;
14768;SDS011;7476;49.404;11.152;2022-11-20T10:30:11;10.00;;;7.23;;
14768;SDS011;7476;49.404;11.152;2022-11-20T10:32:40;10.90;;;7.83;;
14768;SDS011;7476;49.404;11.152;2022-11-20T10:35:16;10.30;;;7.13;;
14768;SDS011;7476;49.404;11.152;2022-11-20T10:37:48;12.03;;;7.40;;
14768;SDS011;7476;49.404;11.152;2022-11-20T10:40:20;10.97;;;7.63;;
14768;SDS011;7476;49.404;11.152;2022-11-20T10:42:51;10.93;;;8.23;;
14768;SDS011;7476;49.404;11.152;2022-11-20T10:45:27;10.73;;;7.67;;
14768;SDS011;7476;49.404;11.152;2022-11-20T10:48:12;9.97;;;7.50;;
14768;SDS011;7476;49.404;11.152;2022-11-20T10:50:47;9.93;;;7.70;;
14768;SDS011;7476;49.404;11.152;2022-11-20T10:53:25;8.97;;;6.90;;
14768;SDS011;7476;49.404;11.152;2022-11-20T10:56:05;9.57;;;6.90;;
14768;SDS011;7476;49.404;11.152;2022-11-20T10:58:37;10.77;;;7.20;;
14768;SDS011;7476;49.404;11.152;2022-11-20T11:01:13;10.27;;;6.80;;
14768;SDS011;7476;49.404;11.152;2022-11-20T11:03:41;9.70;;;6.70;;
14768;SDS011;7476;49.404;11.152;2022-11-20T11:06:12;8.70;;;6.63;;
14768;SDS011;7476;49.404;11.152;2022-11-20T11:08:46;7.87;;;6.33;;
14768;SDS011;7476;49.404;11.152;2022-11-20T11:11:18;7.10;;;5.97;;
14768;SDS011;7476;49.404;11.152;2022-11-20T11:13:48;7.57;;;5.50;;
14768;SDS011;7476;49.404;11.152;2022-11-20T11:16:19;7.40;;;5.50;;
14768;SDS011;7476;49.404;11.152;2022-11-20T11:18:48;7.67;;;6.20;;
14768;SDS011;7476;49.404;11.152;2022-11-20T11:21:21;7.17;;;5.10;;
14768;SDS011;7476;49.404;11.152;2022-11-20T11:23:57;6.67;;;5.13;;
14768;SDS011;7476;49.404;11.152;2022-11-20T11:26:25;5.93;;;4.40;;
14768;SDS011;7476;49.404;11.152;2022-11-20T11:28:53;4.70;;;4.07;;
14768;SDS011;7476;49.404;11.152;2022-11-20T11:31:24;4.67;;;4.20;;
14768;SDS011;7476;49.404;11.152;2022-11-20T11:33:52;4.57;;;3.90;;
14768;SDS011;7476;49.404;11.152;2022-11-20T11:36:31;3.80;;;3.40;;
14768;SDS011;7476;49.404;11.152;2022-11-20T11:39:00;8.07;;;6.60;;
14768;SDS011;7476;49.404;11.152;2022-11-20T11:41:30;9.67;;;6.90;;
14768;SDS011;7476;49.404;11.152;2022-11-20T11:44:01;8.93;;;7.00;;
14768;SDS011;7476;49.404;11.152;2022-11-20T11:46:58;9.27;;;7.40;;
14768;SDS011;7476;49.404;11.152;2022-11-20T11:49:25;8.60;;;6.37;;
14768;SDS011;7476;49.404;11.152;2022-11-20T11:52:00;6.47;;;5.40;;
14768;SDS011;7476;49.404;11.152;2022-11-20T11:54:33;7.17;;;5.40;;
14768;SDS011;7476;49.404;11.152;2022-11-20T11:57:05;6.77;;;5.27;;
14768;SDS011;7476;49.404;11.152;2022-11-20T11:59:41;7.30;;;5.67;;
14768;SDS011;7476;49.404;11.152;2022-11-20T12:02:20;8.20;;;6.00;;
14768;SDS011;7476;49.404;11.152;2022-11-20T12:04:57;7.63;;;6.23;;
14768;SDS011;7476;49.404;11.152;2022-11-20T12:07:33;8.10;;;6.10;;
14768;SDS011;7476;49.404;11.152;2022-11-20T12:10:05;8.43;;;6.03;;
14768;SDS011;7476;49.404;11.152;2022-11-20T12:12:42;7.97;;;5.63;;
14768;SDS011;7476;49.404;11.152;2022-11-20T12:15:13;7.97;;;6.17;;
14768;SDS011;7476;49.404;11.152;2022-11-20T12:17:48;8.37;;;5.80;;
14768;SDS011;7476;49.404;11.152;2022-11-20T12:20:15;9.80;;;6.80;;
14768;SDS011;7476;49.404;11.152;2022-11-20T12:22:46;9.53;;;6.47;;
14768;SDS011;7476;49.404;11.152;2022-11-20T12:25:18;7.53;;;6.33;;
14768;SDS011;7476;49.404;11.152;2022-11-20T12:27:58;9.70;;;6.73;;
14768;SDS011;7476;49.404;11.152;2022-11-20T12:30:40;8.90;;;6.37;;
14768;SDS011;7476;49.404;11.152;2022-11-20T12:33:26;8.87;;;6.43;;
14768;SDS011;7476;49.404;11.152;2022-11-20T12:36:07;7.80;;;6.33;;
14768;SDS011;7476;49.404;11.152;2022-11-20T12:38:50;8.00;;;5.63;;
14768;SDS011;7476;49.404;11.152;2022-11-20T12:41:46;7.57;;;5.93;;
14768;SDS011;7476;49.404;11.152;2022-11-20T12:48:03;7.60;;;5.93;;
14768;SDS011;7476;49.404;11.152;2022-11-20T12:50:46;9.00;;;7.37;;
14768;SDS011;7476;49.404;11.152;2022-11-20T12:53:26;8.37;;;6.40;;
14768;SDS011;7476;49.404;11.152;2022-11-20T12:56:00;7.60;;;6.07;;
14768;SDS011;7476;49.404;11.152;2022-11-20T12:58:35;7.73;;;6.37;;
14768;SDS011;7476;49.404;11.152;2022-11-20T13:01:25;8.03;;;6.07;;
14768;SDS011;7476;49.404;11.152;2022-11-20T13:04:08;7.43;;;5.63;;
14768;SDS011;7476;49.404;11.152;2022-11-20T13:06:45;8.67;;;6.30;;
14768;SDS011;7476;49.404;11.152;2022-11-20T13:09:13;7.87;;;6.50;;
14768;SDS011;7476;49.404;11.152;2022-11-20T13:11:44;9.00;;;5.97;;
14768;SDS011;7476;49.404;11.152;2022-11-20T13:14:20;8.23;;;6.60;;
14768;SDS011;7476;49.404;11.152;2022-11-20T13:16:58;7.40;;;6.37;;
14768;SDS011;7476;49.404;11.152;2022-11-20T13:19:31;7.37;;;6.47;;
14768;SDS011;7476;49.404;11.152;2022-11-20T13:21:59;7.93;;;6.23;;
14768;SDS011;7476;49.404;11.152;2022-11-20T13:24:26;9.10;;;7.13;;
14768;SDS011;7476;49.404;11.152;2022-11-20T13:27:03;8.40;;;6.60;;
14768;SDS011;7476;49.404;11.152;2022-11-20T13:29:45;7.20;;;6.20;;
14768;SDS011;7476;49.404;11.152;2022-11-20T13:32:24;8.57;;;6.30;;
14768;SDS011;7476;49.404;11.152;2022-11-20T13:34:52;8.53;;;6.73;;
14768;SDS011;7476;49.404;11.152;2022-11-20T13:37:27;8.73;;;6.47;;
14768;SDS011;7476;49.404;11.152;2022-11-20T13:40:11;9.07;;;6.73;;
14768;SDS011;7476;49.404;11.152;2022-11-20T13:42:54;8.20;;;6.80;;
14768;SDS011;7476;49.404;11.152;2022-11-20T13:45:24;8.03;;;6.80;;
14768;SDS011;7476;49.404;11.152;2022-11-20T13:47:52;10.40;;;7.37;;
14768;SDS011;7476;49.404;11.152;2022-11-20T13:50:21;7.87;;;6.43;;
14768;SDS011;7476;49.404;11.152;2022-11-20T13:52:55;8.47;;;6.40;;
14768;SDS011;7476;49.404;11.152;2022-11-20T13:55:31;8.57;;;6.80;;
14768;SDS011;7476;49.404;11.152;2022-11-20T13:58:07;8.73;;;7.10;;
14768;SDS011;7476;49.404;11.152;2022-11-20T14:00:50;10.57;;;8.00;;
14768;SDS011;7476;49.404;11.152;2022-11-20T14:03:22;10.00;;;8.00;;
14768;SDS011;7476;49.404;11.152;2022-11-20T14:05:51;10.23;;;8.37;;
14768;SDS011;7476;49.404;11.152;2022-11-20T14:08:27;10.90;;;7.97;;
14768;SDS011;7476;49.404;11.152;2022-11-20T14:11:02;10.40;;;7.97;;
14768;SDS011;7476;49.404;11.152;2022-11-20T14:13:31;9.73;;;8.10;;
14768;SDS011;7476;49.404;11.152;2022-11-20T14:15:58;10.60;;;7.93;;
14768;SDS011;7476;49.404;11.152;2022-11-20T14:18:25;10.60;;;8.37;;
14768;SDS011;7476;49.404;11.152;2022-11-20T14:20:53;9.90;;;7.93;;
14768;SDS011;7476;49.404;11.152;2022-11-20T14:23:23;9.87;;;7.83;;
14768;SDS011;7476;49.404;11.152;2022-11-20T14:25:51;10.20;;;7.87;;
14768;SDS011;7476;49.404;11.152;2022-11-20T14:28:19;10.00;;;7.80;;
14768;SDS011;7476;49.404;11.152;2022-11-20T14:30:52;9.60;;;7.50;;
14768;SDS011;7476;49.404;11.152;2022-11-20T14:33:21;10.17;;;8.00;;
14768;SDS011;7476;49.404;11.152;2022-11-20T14:35:50;9.43;;;7.87;;
14768;SDS011;7476;49.404;11.152;2022-11-20T14:38:19;10.97;;;7.77;;
14768;SDS011;7476;49.404;11.152;2022-11-20T14:40:49;10.13;;;7.60;;
14768;SDS011;7476;49.404;11.152;2022-11-20T14:43:17;9.70;;;7.67;;
14768;SDS011;7476;49.404;11.152;2022-11-20T14:45:48;9.50;;;7.40;;
14768;SDS011;7476;49.404;11.152;2022-11-20T14:48:23;8.90;;;7.53;;
14768;SDS011;7476;49.404;11.152;2022-11-20T14:50:56;9.83;;;7.90;;
14768;SDS011;7476;49.404;11.152;2022-11-20T14:53:23;10.07;;;7.00;;